createdAt,value
2024-04-12T00:02:14.485Z,86.13
2024-04-12T00:04:43.453Z,98.45
2024-04-12T00:07:17.656Z,94.95
2024-04-12T00:09:55.853Z,100.85
2024-04-12T00:12:30.033Z,82.60
2024-04-12T00:15:18.663Z,82.00
2024-04-12T00:17:49.766Z,98.35
2024-04-12T00:20:19.966Z,99.10
2024-04-12T00:22:50.403Z,121.40
2024-04-12T00:25:18.646Z,93.05
2024-04-12T00:27:46.564Z,76.63
2024-04-12T00:30:34.524Z,92.43
2024-04-12T00:33:02.428Z,96.00
2024-04-12T00:35:36.430Z,88.55
2024-04-12T00:38:14.636Z,98.82
2024-04-12T00:40:48.070Z,104.00
2024-04-12T00:43:19.443Z,100.32
2024-04-12T00:45:50.450Z,106.28
2024-04-12T00:48:18.388Z,102.57
2024-04-12T00:50:48.544Z,102.60
2024-04-12T00:53:23.995Z,95.40
2024-04-12T00:56:05.035Z,98.35
2024-04-12T00:58:34.769Z,132.32
2024-04-12T01:01:13.277Z,110.68
2024-04-12T01:03:49.028Z,121.40
2024-04-12T01:06:31.649Z,108.78
2024-04-12T01:09:06.299Z,119.50
2024-04-12T01:11:35.874Z,103.22
2024-04-12T01:14:03.933Z,110.63
2024-04-12T01:16:31.892Z,102.85
2024-04-12T01:18:59.911Z,92.55
2024-04-12T01:21:28.271Z,110.35
2024-04-12T01:23:56.310Z,97.30
2024-04-12T01:26:29.558Z,126.68
2024-04-12T01:28:59.304Z,100.43
2024-04-12T01:31:29.306Z,99.22
2024-04-12T01:33:57.363Z,106.88
2024-04-12T01:36:26.388Z,93.00
2024-04-12T01:39:00.559Z,92.43
2024-04-12T01:41:35.890Z,114.57
2024-04-12T01:44:14.275Z,116.13
2024-04-12T01:46:42.368Z,109.35
2024-04-12T01:49:13.202Z,123.43
2024-04-12T01:51:43.812Z,113.65
2024-04-12T01:54:19.504Z,76.93
2024-04-12T01:56:52.350Z,114.03
2024-04-12T01:59:23.901Z,99.80
2024-04-12T02:01:52.593Z,108.45
2024-04-12T02:04:23.261Z,110.43
2024-04-12T02:06:52.985Z,112.82
2024-04-12T02:09:21.357Z,98.47
2024-04-12T02:11:54.109Z,107.38
2024-04-12T02:14:22.218Z,113.43
2024-04-12T02:16:52.698Z,97.80
2024-04-12T02:19:23.730Z,97.15
2024-04-12T02:21:52.737Z,89.85
2024-04-12T02:24:20.688Z,91.05
2024-04-12T02:26:50.366Z,90.65
2024-04-12T02:29:18.598Z,91.28
2024-04-12T02:31:47.192Z,98.22
2024-04-12T02:34:18.032Z,78.05
2024-04-12T02:36:50.062Z,87.05
2024-04-12T02:39:24.322Z,91.00
2024-04-12T02:41:52.270Z,83.28
2024-04-12T02:44:20.756Z,89.57
2024-04-12T02:46:48.779Z,75.00
2024-04-12T02:49:16.666Z,80.38
2024-04-12T02:51:49.150Z,95.72
2024-04-12T02:54:18.461Z,77.00
2024-04-12T02:56:46.505Z,86.68
2024-04-12T02:59:15.883Z,79.47
2024-04-12T03:01:43.912Z,56.67
2024-04-12T03:04:11.940Z,63.88
2024-04-12T03:06:39.889Z,81.85
2024-04-12T03:09:07.897Z,68.60
2024-04-12T03:11:36.915Z,71.30
2024-04-12T03:14:16.801Z,81.80
2024-04-12T03:16:48.034Z,78.45
2024-04-12T03:19:17.201Z,77.45
2024-04-12T03:21:53.047Z,76.38
2024-04-12T03:24:21.623Z,87.68
2024-04-12T03:26:50.717Z,74.80
2024-04-12T03:29:19.152Z,77.82
2024-04-12T03:31:49.190Z,57.13
2024-04-12T03:34:17.404Z,59.40
2024-04-12T03:36:47.834Z,54.97
2024-04-12T03:39:22.122Z,55.35
2024-04-12T03:42:10.675Z,50.95
2024-04-12T03:44:39.794Z,51.25
2024-04-12T03:47:11.480Z,57.05
2024-04-12T03:49:43.943Z,48.70
2024-04-12T03:52:21.422Z,49.63
2024-04-12T03:54:49.915Z,69.07
2024-04-12T03:57:18.331Z,65.75
2024-04-12T03:59:47.123Z,53.30
2024-04-12T04:02:17.765Z,47.65
2024-04-12T04:04:47.374Z,41.35
2024-04-12T04:07:17.990Z,67.28
2024-04-12T04:09:47.061Z,53.53
2024-04-12T04:12:19.065Z,47.80
2024-04-12T04:14:52.433Z,55.67
2024-04-12T04:17:32.461Z,50.38
2024-04-12T04:20:09.068Z,52.72
2024-04-12T04:22:37.753Z,59.22
2024-04-12T04:25:10.142Z,44.70
2024-04-12T04:27:39.795Z,48.10
2024-04-12T04:30:09.027Z,38.45
2024-04-12T04:32:37.516Z,51.30
2024-04-12T04:35:11.561Z,49.05
2024-04-12T04:37:40.258Z,48.15
2024-04-12T04:40:19.681Z,43.47
2024-04-12T04:42:51.876Z,36.13
2024-04-12T04:45:21.029Z,58.75
2024-04-12T04:47:50.131Z,48.05
2024-04-12T04:50:21.506Z,43.22
2024-04-12T04:52:49.537Z,47.33
2024-04-12T04:55:19.295Z,54.05
2024-04-12T04:57:49.404Z,56.33
2024-04-12T05:00:20.772Z,46.50
2024-04-12T05:02:52.662Z,47.85
2024-04-12T05:05:27.001Z,48.53
2024-04-12T05:08:01.118Z,43.53
2024-04-12T05:10:36.668Z,48.65
2024-04-12T05:13:08.088Z,63.08
2024-04-12T05:15:42.412Z,52.80
2024-04-12T05:18:15.335Z,51.28
2024-04-12T05:20:45.568Z,76.80
2024-04-12T05:23:15.091Z,58.05
2024-04-12T05:25:53.075Z,62.05
2024-04-12T05:28:21.688Z,63.55
2024-04-12T05:30:52.833Z,56.40
2024-04-12T05:33:25.116Z,57.03
2024-04-12T05:35:53.621Z,65.80
2024-04-12T05:38:26.389Z,67.28
2024-04-12T05:40:55.419Z,61.42
2024-04-12T05:43:24.234Z,66.35
2024-04-12T05:45:57.180Z,56.97
2024-04-12T05:48:26.339Z,84.85
2024-04-12T05:50:59.907Z,53.65
2024-04-12T05:53:33.892Z,61.95
2024-04-12T05:56:22.150Z,68.57
2024-04-12T05:58:53.670Z,72.82
2024-04-12T06:01:22.005Z,60.78
2024-04-12T06:03:56.490Z,76.68
2024-04-12T06:06:25.702Z,61.65
2024-04-12T06:08:55.108Z,66.90
2024-04-12T06:11:26.988Z,67.20
2024-04-12T06:13:56.389Z,69.00
2024-04-12T06:16:25.540Z,71.97
2024-04-12T06:18:53.738Z,79.65
2024-04-12T06:21:21.545Z,64.75
2024-04-12T06:23:57.128Z,73.45
2024-04-12T06:26:25.222Z,57.17
2024-04-12T06:28:58.960Z,69.40
2024-04-12T06:31:36.653Z,76.35
2024-04-12T06:34:08.342Z,59.33
2024-04-12T06:36:48.879Z,81.18
2024-04-12T06:39:17.828Z,83.32
2024-04-12T06:41:47.411Z,68.05
2024-04-12T06:44:21.389Z,62.33
2024-04-12T06:47:00.057Z,60.08
2024-04-12T06:49:31.190Z,60.45
2024-04-12T06:52:12.822Z,74.93
2024-04-12T06:54:48.636Z,63.13
2024-04-12T06:57:20.019Z,69.57
2024-04-12T06:59:49.490Z,82.85
2024-04-12T07:02:17.335Z,72.53
2024-04-12T07:04:45.579Z,70.82
2024-04-12T07:07:13.991Z,71.60
2024-04-12T07:09:47.489Z,71.25
2024-04-12T07:12:15.480Z,74.13
2024-04-12T07:14:43.305Z,75.72
2024-04-12T07:17:30.716Z,77.93
2024-04-12T07:20:01.791Z,86.40
2024-04-12T07:22:30.860Z,64.20
2024-04-12T07:25:00.945Z,74.65
2024-04-12T07:27:29.954Z,85.20
2024-04-12T07:29:59.828Z,79.45
2024-04-12T07:32:37.547Z,71.55
2024-04-12T07:35:27.130Z,82.05
2024-04-12T07:37:59.328Z,71.88
2024-04-12T07:40:37.471Z,79.07
2024-04-12T07:43:11.531Z,78.38
2024-04-12T07:45:41.930Z,83.55
2024-04-12T07:48:29.131Z,77.90
2024-04-12T07:51:03.227Z,97.05
2024-04-12T07:53:37.559Z,88.93
2024-04-12T07:56:10.676Z,80.43
2024-04-12T07:58:42.978Z,84.05
2024-04-12T08:01:18.427Z,91.07
2024-04-12T08:04:07.937Z,90.03
2024-04-12T08:06:57.620Z,89.85
2024-04-12T08:09:36.644Z,86.97
2024-04-12T08:12:29.568Z,66.88
2024-04-12T08:14:57.798Z,76.15
2024-04-12T08:17:29.889Z,76.32
2024-04-12T08:20:15.384Z,85.72
2024-04-12T08:22:47.760Z,82.38
2024-04-12T08:25:20.473Z,85.88
2024-04-12T08:27:49.188Z,85.07
2024-04-12T08:30:21.653Z,92.00
2024-04-12T08:32:53.355Z,85.07
2024-04-12T08:35:26.726Z,84.18
2024-04-12T08:37:55.838Z,91.22
2024-04-12T08:40:27.461Z,77.63
2024-04-12T08:43:11.755Z,95.88
2024-04-12T08:45:45.939Z,99.05
2024-04-12T08:48:15.754Z,100.60
2024-04-12T08:50:43.883Z,109.18
2024-04-12T08:53:17.073Z,111.57
2024-04-12T08:55:46.559Z,103.32
2024-04-12T08:58:22.718Z,110.75
2024-04-12T09:00:57.265Z,96.85
2024-04-12T09:03:32.075Z,94.72
2024-04-12T09:06:00.319Z,88.78
2024-04-12T09:08:33.435Z,83.43
2024-04-12T09:11:08.541Z,92.15
2024-04-12T09:13:38.122Z,108.60
2024-04-12T09:16:09.374Z,102.28
2024-04-12T09:18:55.398Z,108.63
2024-04-12T09:21:27.104Z,104.03
2024-04-12T09:23:58.993Z,87.97
2024-04-12T09:26:27.643Z,94.57
2024-04-12T09:29:11.759Z,83.85
2024-04-12T09:32:00.047Z,115.32
2024-04-12T09:34:38.195Z,98.30
2024-04-12T09:37:30.360Z,96.95
2024-04-12T09:40:03.140Z,103.55
2024-04-12T09:42:55.631Z,104.35
2024-04-12T09:45:29.822Z,120.97
2024-04-12T09:48:19.319Z,107.68
2024-04-12T09:51:06.066Z,119.50
2024-04-12T09:53:52.788Z,122.30
2024-04-12T09:56:40.068Z,110.53
2024-04-12T09:59:48.996Z,104.07
2024-04-12T10:02:40.821Z,104.50
2024-04-12T10:05:29.218Z,118.15
2024-04-12T10:08:30.698Z,120.60
2024-04-12T10:11:19.254Z,115.10
2024-04-12T10:14:07.696Z,128.18
2024-04-12T10:17:00.434Z,120.45
2024-04-12T10:19:47.023Z,148.15
2024-04-12T10:22:34.980Z,112.97
2024-04-12T10:25:28.267Z,114.43
2024-04-12T10:28:14.659Z,136.82
2024-04-12T10:31:05.012Z,128.05
2024-04-12T10:34:03.077Z,134.45
2024-04-12T10:36:50.199Z,120.55
2024-04-12T10:39:18.536Z,128.55
2024-04-12T10:41:47.643Z,119.65
2024-04-12T10:44:18.564Z,108.20
2024-04-12T10:46:49.268Z,141.02
2024-04-12T10:49:17.873Z,115.03
2024-04-12T10:51:45.962Z,107.35
2024-04-12T10:54:15.991Z,123.97
2024-04-12T10:56:49.247Z,125.18
2024-04-12T10:59:28.982Z,113.78
2024-04-12T11:02:01.953Z,115.43
2024-04-12T11:04:36.674Z,140.35
2024-04-12T11:07:05.112Z,120.45
2024-04-12T11:09:40.068Z,125.63
2024-04-12T11:12:12.680Z,122.63
2024-04-12T11:14:40.851Z,115.97
2024-04-12T11:17:28.125Z,136.88
2024-04-12T11:20:35.441Z,121.93
2024-04-12T11:23:25.060Z,97.65
2024-04-12T11:26:12.004Z,113.10
2024-04-12T11:29:01.528Z,91.72
2024-04-12T11:31:30.623Z,111.85
2024-04-12T11:34:08.312Z,96.45
2024-04-12T11:36:41.972Z,82.22
2024-04-12T11:39:20.359Z,88.82
2024-04-12T11:41:49.646Z,96.15
2024-04-12T11:44:20.656Z,75.95
2024-04-12T11:46:57.906Z,86.85
2024-04-12T11:49:28.800Z,69.55
2024-04-12T11:52:04.032Z,77.07
2024-04-12T11:54:32.749Z,85.43
2024-04-12T11:57:02.440Z,91.82
2024-04-12T11:59:34.460Z,86.60
2024-04-12T12:02:05.903Z,73.40
2024-04-12T12:04:34.988Z,84.50
2024-04-12T12:07:11.710Z,76.90
2024-04-12T12:09:40.620Z,78.65
2024-04-12T12:12:13.232Z,76.07
2024-04-12T12:14:44.532Z,75.07
2024-04-12T12:17:18.345Z,86.82
2024-04-12T12:19:55.188Z,79.90
2024-04-12T12:22:23.551Z,82.45
2024-04-12T12:24:52.785Z,74.30
2024-04-12T12:27:21.732Z,69.53
2024-04-12T12:29:56.296Z,64.72
2024-04-12T12:32:27.989Z,62.20
2024-04-12T12:34:56.742Z,48.40
2024-04-12T12:37:27.371Z,56.67
2024-04-12T12:39:57.485Z,56.67
2024-04-12T12:42:25.462Z,57.70
2024-04-12T12:44:54.022Z,53.35
2024-04-12T12:47:22.188Z,54.28
2024-04-12T12:49:49.987Z,65.47
2024-04-12T12:52:19.285Z,55.80
2024-04-12T12:54:47.499Z,62.53
2024-04-12T12:57:19.486Z,39.05
2024-04-12T12:59:48.316Z,37.08
2024-04-12T13:02:17.089Z,43.70
2024-04-12T13:04:48.484Z,39.88
2024-04-12T13:07:20.389Z,34.40
2024-04-12T13:09:57.033Z,44.63
2024-04-12T13:12:31.242Z,52.97
2024-04-12T13:15:00.122Z,51.95
2024-04-12T13:17:28.506Z,42.38
2024-04-12T13:19:58.874Z,47.30
2024-04-12T13:22:26.823Z,43.00
2024-04-12T13:24:55.191Z,48.08
2024-04-12T13:27:25.673Z,48.90
2024-04-12T13:29:53.766Z,44.83
2024-04-12T13:32:21.737Z,51.85
2024-04-12T13:34:49.642Z,52.17
2024-04-12T13:37:17.534Z,41.65
2024-04-12T13:39:50.225Z,48.35
2024-04-12T13:42:22.236Z,56.20
2024-04-12T13:45:09.068Z,53.65
2024-04-12T13:47:55.829Z,49.33
2024-04-12T13:50:42.257Z,53.65
2024-04-12T13:53:11.530Z,58.55
2024-04-12T13:55:40.852Z,56.00
2024-04-12T13:58:09.120Z,50.75
2024-04-12T14:00:38.148Z,48.83
2024-04-12T14:03:08.676Z,40.45
2024-04-12T14:05:37.390Z,44.67
2024-04-12T14:08:12.007Z,53.35
2024-04-12T14:10:40.092Z,56.65
2024-04-12T14:13:08.095Z,44.83
2024-04-12T14:15:36.811Z,56.72
2024-04-12T14:18:09.346Z,61.65
2024-04-12T14:20:37.395Z,58.90
2024-04-12T14:23:05.394Z,50.92
2024-04-12T14:25:36.130Z,42.25
2024-04-12T14:28:04.097Z,51.15
2024-04-12T14:30:32.003Z,52.53
2024-04-12T14:33:00.032Z,48.85
2024-04-12T14:35:27.906Z,52.72
2024-04-12T14:37:56.306Z,48.17
2024-04-12T14:40:24.621Z,42.65
2024-04-12T14:42:56.194Z,47.80
2024-04-12T14:45:25.885Z,45.17
2024-04-12T14:47:59.582Z,57.60
2024-04-12T14:50:36.740Z,50.15
2024-04-12T14:53:06.189Z,58.35
2024-04-12T14:55:34.610Z,53.58
2024-04-12T14:58:04.793Z,42.58
2024-04-12T15:00:33.780Z,49.03
2024-04-12T15:03:01.658Z,45.10
2024-04-12T15:05:48.068Z,47.78
2024-04-12T15:08:36.059Z,52.08
2024-04-12T15:11:24.238Z,45.63
2024-04-12T15:14:11.127Z,40.03
2024-04-12T15:16:57.468Z,31.10
2024-04-12T15:19:43.683Z,41.95
2024-04-12T15:22:30.104Z,40.05
2024-04-12T15:25:16.473Z,43.08
2024-04-12T15:28:03.039Z,40.70
2024-04-12T15:30:49.632Z,36.88
2024-04-12T15:33:36.260Z,41.58
2024-04-12T15:36:23.224Z,45.50
2024-04-12T15:39:09.874Z,43.13
2024-04-12T15:41:56.352Z,46.22
2024-04-12T15:44:42.685Z,53.85
2024-04-12T15:47:10.553Z,46.03
2024-04-12T15:49:44.819Z,36.03
2024-04-12T15:52:13.016Z,39.28
2024-04-12T15:54:53.854Z,34.90
2024-04-12T15:57:41.550Z,41.47
2024-04-12T16:00:28.538Z,39.30
2024-04-12T16:03:15.178Z,33.25
2024-04-12T16:06:02.134Z,38.20
2024-04-12T16:08:49.104Z,35.50
2024-04-12T16:11:17.429Z,39.33
2024-04-12T16:13:45.654Z,36.40
2024-04-12T16:16:13.434Z,35.13
2024-04-12T16:18:41.699Z,42.67
2024-04-12T16:21:09.658Z,45.22
2024-04-12T16:23:37.537Z,44.25
2024-04-12T16:26:05.904Z,34.38
2024-04-12T16:28:35.108Z,33.53
2024-04-12T16:31:05.927Z,38.92
2024-04-12T16:33:35.738Z,33.38
2024-04-12T16:36:04.997Z,39.17
2024-04-12T16:38:35.168Z,40.33
2024-04-12T16:41:04.521Z,30.30
2024-04-12T16:43:34.272Z,30.02
2024-04-12T16:46:02.283Z,31.70
2024-04-12T16:48:30.242Z,35.15
2024-04-12T16:50:58.305Z,38.38
2024-04-12T16:53:27.315Z,41.75
2024-04-12T16:55:55.174Z,33.85
2024-04-12T16:58:23.072Z,40.15
2024-04-12T17:00:50.911Z,39.60
2024-04-12T17:03:19.023Z,42.60
2024-04-12T17:05:48.670Z,38.85
2024-04-12T17:08:16.954Z,33.20
2024-04-12T17:10:44.985Z,38.78
2024-04-12T17:13:12.790Z,35.65
2024-04-12T17:15:42.506Z,37.40
2024-04-12T17:18:10.594Z,44.95
2024-04-12T17:20:38.614Z,37.35
2024-04-12T17:23:07.015Z,38.38
2024-04-12T17:25:39.361Z,36.83
2024-04-12T17:28:11.288Z,35.08
2024-04-12T17:30:39.319Z,40.53
2024-04-12T17:33:07.184Z,37.75
2024-04-12T17:35:35.049Z,45.35
2024-04-12T17:38:04.046Z,37.40
2024-04-12T17:40:31.979Z,32.80
2024-04-12T17:42:59.982Z,41.08
2024-04-12T17:45:27.906Z,41.33
2024-04-12T17:47:56.219Z,41.08
2024-04-12T17:50:26.059Z,44.58
2024-04-12T17:52:54.465Z,50.88
2024-04-12T17:55:22.222Z,45.80
2024-04-12T17:57:50.714Z,43.33
2024-04-12T18:00:19.235Z,37.53
2024-04-12T18:02:47.361Z,41.10
2024-04-12T18:05:15.318Z,52.35
2024-04-12T18:07:43.167Z,57.78
2024-04-12T18:10:13.903Z,47.60
2024-04-12T18:12:44.510Z,33.90
2024-04-12T18:15:12.714Z,40.63
2024-04-12T18:17:40.702Z,36.95
2024-04-12T18:20:10.899Z,46.33
2024-04-12T18:22:39.264Z,44.22
2024-04-12T18:25:08.153Z,52.55
2024-04-12T18:27:36.231Z,47.22
2024-04-12T18:30:06.090Z,54.55
2024-04-12T18:32:33.985Z,50.00
2024-04-12T18:35:01.853Z,56.78
2024-04-12T18:37:48.440Z,49.67
2024-04-12T18:40:34.799Z,48.65
2024-04-12T18:43:21.214Z,54.85
2024-04-12T18:45:49.418Z,41.17
2024-04-12T18:48:21.475Z,50.58
2024-04-12T18:50:49.698Z,58.90
2024-04-12T18:53:17.551Z,62.83
2024-04-12T18:55:54.276Z,65.55
2024-04-12T18:58:22.154Z,70.50
2024-04-12T19:00:51.093Z,65.40
2024-04-12T19:03:19.219Z,70.18
2024-04-12T19:05:47.126Z,62.13
2024-04-12T19:08:15.115Z,59.63
2024-04-12T19:10:43.608Z,50.72
2024-04-12T19:13:11.618Z,55.22
2024-04-12T19:15:40.440Z,50.70
2024-04-12T19:18:13.018Z,54.45
2024-04-12T19:20:42.285Z,46.13
2024-04-12T19:23:10.769Z,56.50
2024-04-12T19:25:38.631Z,56.50
2024-04-12T19:28:06.868Z,76.03
2024-04-12T19:30:41.137Z,64.63
2024-04-12T19:33:27.818Z,56.92
2024-04-12T19:36:16.093Z,73.60
2024-04-12T19:38:45.741Z,86.35
2024-04-12T19:41:16.200Z,75.18
2024-04-12T19:43:44.694Z,62.13
2024-04-12T19:46:16.186Z,49.10
2024-04-12T19:48:44.545Z,69.25
2024-04-12T19:51:13.298Z,71.65
2024-04-12T19:53:41.220Z,59.75
2024-04-12T19:56:09.578Z,57.60
2024-04-12T19:58:41.414Z,53.60
2024-04-12T20:01:13.059Z,87.13
2024-04-12T20:03:43.278Z,55.00
2024-04-12T20:06:12.474Z,39.38
2024-04-12T20:08:40.345Z,50.53
2024-04-12T20:11:09.376Z,49.10
2024-04-12T20:13:37.711Z,41.85
2024-04-12T20:16:07.821Z,46.50
2024-04-12T20:18:38.922Z,25.23
2024-04-12T20:21:10.351Z,27.75
2024-04-12T20:23:39.537Z,26.83
2024-04-12T20:26:15.118Z,34.35
2024-04-12T20:28:54.077Z,40.08
2024-04-12T20:31:35.827Z,36.65
2024-04-12T20:34:06.133Z,36.40
2024-04-12T20:36:39.539Z,29.20
2024-04-12T20:41:55.038Z,31.40
2024-04-12T20:44:27.291Z,25.95
2024-04-12T20:46:56.719Z,40.25
2024-04-12T20:49:26.088Z,60.92
2024-04-12T20:51:53.983Z,66.80
2024-04-12T20:54:22.309Z,56.33
2024-04-12T20:56:51.184Z,61.90
2024-04-12T20:59:22.215Z,52.45
2024-04-12T21:01:53.402Z,59.88
2024-04-12T21:04:22.194Z,61.72
2024-04-12T21:06:55.267Z,66.00
2024-04-12T21:09:23.207Z,84.45
2024-04-12T21:11:53.626Z,75.57
2024-04-12T21:14:21.816Z,46.50
2024-04-12T21:16:49.650Z,74.80
2024-04-12T21:19:18.501Z,67.68
2024-04-12T21:21:46.348Z,76.03
2024-04-12T21:24:17.284Z,54.70
2024-04-12T21:26:46.687Z,34.53
2024-04-12T21:29:14.637Z,38.30
2024-04-12T21:31:42.534Z,40.03
2024-04-12T21:34:10.411Z,32.78
2024-04-12T21:36:39.749Z,39.88
2024-04-12T21:39:07.692Z,33.03
2024-04-12T21:41:37.080Z,38.05
2024-04-12T21:44:04.962Z,37.05
2024-04-12T21:46:32.814Z,34.83
2024-04-12T21:49:00.754Z,41.10
2024-04-12T21:51:29.621Z,44.28
2024-04-12T21:53:58.186Z,37.25
2024-04-12T21:56:26.075Z,43.00
2024-04-12T21:58:54.014Z,46.20
2024-04-12T22:01:21.919Z,40.75
2024-04-12T22:03:50.039Z,40.17
2024-04-12T22:06:18.231Z,50.08
2024-04-12T22:08:46.697Z,53.10
2024-04-12T22:11:15.285Z,41.55
2024-04-12T22:13:43.119Z,56.60
2024-04-12T22:16:11.467Z,55.60
2024-04-12T22:18:40.725Z,54.92
2024-04-12T22:21:14.293Z,65.25
2024-04-12T22:23:43.837Z,59.95
2024-04-12T22:26:14.688Z,58.00
2024-04-12T22:28:44.420Z,64.93
2024-04-12T22:31:17.175Z,58.63
2024-04-12T22:33:50.911Z,52.07
2024-04-12T22:36:22.607Z,52.60
2024-04-12T22:38:51.965Z,52.75
2024-04-12T22:41:21.138Z,49.03
2024-04-12T22:43:49.033Z,63.05
2024-04-12T22:46:16.908Z,48.75
2024-04-12T22:48:46.710Z,49.55
2024-04-12T22:51:26.319Z,43.45
2024-04-12T22:53:55.243Z,49.90
2024-04-12T22:56:26.364Z,37.78
2024-04-12T22:58:58.707Z,38.03
2024-04-12T23:01:28.708Z,32.53
2024-04-12T23:03:57.203Z,46.10
2024-04-12T23:06:25.468Z,43.58
2024-04-12T23:08:53.407Z,34.05
2024-04-12T23:11:21.804Z,34.92
2024-04-12T23:13:49.970Z,51.03
2024-04-12T23:16:17.867Z,47.13
2024-04-12T23:18:45.804Z,35.97
2024-04-12T23:21:13.874Z,46.35
2024-04-12T23:23:41.746Z,45.75
2024-04-12T23:26:09.557Z,44.42
2024-04-12T23:28:37.467Z,48.58
2024-04-12T23:31:05.576Z,39.25
2024-04-12T23:33:35.575Z,37.38
2024-04-12T23:36:04.841Z,39.17
2024-04-12T23:38:32.698Z,45.95
2024-04-12T23:41:01.067Z,44.13
2024-04-12T23:43:32.469Z,40.53
2024-04-12T23:46:00.600Z,47.55
2024-04-12T23:48:28.542Z,42.08
2024-04-12T23:50:56.522Z,39.85
2024-04-12T23:53:24.810Z,54.97
2024-04-12T23:55:52.649Z,45.72
2024-04-12T23:58:20.527Z,48.58
